Anastasia Island, Florida
Current Conditions -  °F | °C
As of 10:58 AM on Monday 26 Jan 2015 (Local Time) from KSGJ Reporting Station
Broken Clouds Broken Clouds  
Wind Chill: 57°   Ceiling: 3200
Heat Index: 57°   Visibility: 10mi
Dew Point: 44°   Wind: 16mph
Humidity: 62%   Direction: 290°WNW
Pressure: 29.85"   Gusts: 23mph
Location:  29.8475°N, 81.2787°W
Report Text: KSGJ 261558Z 29014G20KT 10SM BKN032 14/07 A2985 RMK AO2 SLP106 T01390067
Loading
Personal Weather Stations






























Interactive Weather Map New forecast layout! Learn more

10-Day Weather Forecast

Advertisements
Track Severe Weather on mobile